createdAt,value
2022-08-05T00:00:12.158Z,2.60
2022-08-05T00:05:27.485Z,2.47
2022-08-05T00:10:44.507Z,2.50
2022-08-05T00:15:55.978Z,2.55
2022-08-05T00:21:01.638Z,2.55
2022-08-05T00:26:06.825Z,2.80
2022-08-05T00:31:10.176Z,3.00
2022-08-05T00:36:16.199Z,2.63
2022-08-05T00:41:51.712Z,2.87
2022-08-05T00:47:01.970Z,2.80
2022-08-05T00:52:08.889Z,2.97
2022-08-05T00:57:13.661Z,3.00
2022-08-05T01:02:16.993Z,3.13
2022-08-05T01:07:20.363Z,3.40
2022-08-05T01:12:29.685Z,3.47
2022-08-05T01:17:40.110Z,3.40
2022-08-05T01:22:57.406Z,3.60
2022-08-05T01:28:32.175Z,3.10
2022-08-05T01:33:40.239Z,3.70
2022-08-05T01:38:46.164Z,3.30
2022-08-05T01:43:54.743Z,3.60
2022-08-05T01:48:59.628Z,3.85
2022-08-05T01:54:06.062Z,4.22
2022-08-05T01:59:18.978Z,3.70
2022-08-05T02:04:25.582Z,4.07
2022-08-05T02:09:29.311Z,4.18
2022-08-05T02:14:38.618Z,4.40
2022-08-05T02:19:47.820Z,4.30
2022-08-05T02:24:54.474Z,4.43
2022-08-05T02:30:02.453Z,4.60
2022-08-05T02:35:13.841Z,3.63
2022-08-05T02:40:19.413Z,4.70
2022-08-05T02:45:26.407Z,4.47
2022-08-05T02:50:32.142Z,4.72
2022-08-05T02:55:59.487Z,4.93
2022-08-05T03:01:03.394Z,5.65
2022-08-05T03:06:55.959Z,5.13
2022-08-05T03:11:55.023Z,5.30
2022-08-05T03:16:55.904Z,5.63
2022-08-05T03:21:59.211Z,5.57
2022-08-05T03:27:02.738Z,5.20
2022-08-05T03:32:09.313Z,5.72
2022-08-05T03:37:14.481Z,6.23
2022-08-05T03:42:17.845Z,6.27
2022-08-05T03:47:22.779Z,6.40
2022-08-05T03:52:49.266Z,6.10
2022-08-05T03:57:56.638Z,6.20
2022-08-05T04:03:04.266Z,6.30
2022-08-05T04:08:29.585Z,6.60
2022-08-05T04:13:51.358Z,6.85
2022-08-05T04:18:58.169Z,7.18
2022-08-05T04:24:06.642Z,6.97
2022-08-05T04:29:12.288Z,5.77
2022-08-05T04:34:33.001Z,5.60
2022-08-05T04:39:37.429Z,6.23
2022-08-05T04:44:42.722Z,6.32
2022-08-05T04:50:03.013Z,5.60
2022-08-05T04:55:14.225Z,5.63
2022-08-05T05:00:18.780Z,5.70
2022-08-05T05:05:29.451Z,6.10
2022-08-05T05:10:33.989Z,5.13
2022-08-05T05:15:57.178Z,5.30
2022-08-05T05:21:03.614Z,5.22
2022-08-05T05:26:07.361Z,5.00
2022-08-05T05:31:11.573Z,4.90
2022-08-05T05:36:16.240Z,4.80
2022-08-05T05:41:19.571Z,4.57
2022-08-05T05:46:22.851Z,4.38
2022-08-05T05:51:28.160Z,4.20
2022-08-05T05:56:34.737Z,3.67
2022-08-05T06:01:40.312Z,3.60
2022-08-05T06:06:47.446Z,3.53
2022-08-05T06:12:02.042Z,3.50
2022-08-05T06:17:22.494Z,3.03
2022-08-05T06:22:33.765Z,2.95
2022-08-05T06:28:11.255Z,2.88
2022-08-05T06:33:00.811Z,4.00
2022-08-05T06:38:10.075Z,3.17
2022-08-05T06:43:51.722Z,3.20
2022-08-05T06:48:55.494Z,3.00
2022-08-05T06:54:02.494Z,3.22
2022-08-05T06:59:08.642Z,3.30
2022-08-05T07:04:14.031Z,2.90
2022-08-05T07:09:19.665Z,3.00
2022-08-05T07:14:45.392Z,3.00
2022-08-05T07:25:53.770Z,3.00
2022-08-05T07:30:38.703Z,3.10
2022-08-05T07:36:04.400Z,2.90
2022-08-05T07:41:35.125Z,2.97
2022-08-05T07:46:33.905Z,3.00
2022-08-05T07:51:48.807Z,3.00
2022-08-05T07:57:02.822Z,3.00
2022-08-05T08:02:31.171Z,2.97
2022-08-05T08:07:59.489Z,3.00
2022-08-05T08:13:05.862Z,3.33
2022-08-05T08:18:13.748Z,3.08
2022-08-05T08:24:03.013Z,3.15
2022-08-05T08:28:59.011Z,3.15
2022-08-05T08:34:03.274Z,3.10
2022-08-05T08:39:06.617Z,3.30
2022-08-05T08:45:18.559Z,3.20
2022-08-05T08:50:13.080Z,3.35
2022-08-05T08:55:13.474Z,3.13
2022-08-05T09:00:19.327Z,2.78
2022-08-05T09:05:38.631Z,2.70
2022-08-05T09:10:47.142Z,2.60
2022-08-05T09:15:52.524Z,2.60
2022-08-05T09:20:58.373Z,2.70
2022-08-05T09:26:10.913Z,2.50
2022-08-05T09:32:42.045Z,2.30
2022-08-05T09:36:54.323Z,2.65
2022-08-05T09:42:03.612Z,2.47
2022-08-05T09:47:14.185Z,2.30
2022-08-05T09:52:25.658Z,2.30
2022-08-05T09:57:35.405Z,2.40
2022-08-05T10:02:46.061Z,2.47
2022-08-05T10:08:37.061Z,2.70
2022-08-05T10:13:31.587Z,2.65
2022-08-05T10:18:49.239Z,2.60
2022-08-05T10:24:00.430Z,2.53
2022-08-05T10:29:05.641Z,2.53
2022-08-05T10:34:11.146Z,2.10
2022-08-05T10:39:24.804Z,1.90
2022-08-05T10:44:46.765Z,2.20
2022-08-05T10:50:32.937Z,2.10
2022-08-05T10:56:03.718Z,2.00
2022-08-05T11:01:02.778Z,1.80
2022-08-05T11:06:15.250Z,1.88
2022-08-05T11:11:44.542Z,1.60
2022-08-05T11:18:07.685Z,1.70
2022-08-05T11:23:01.834Z,1.70
2022-08-05T11:28:43.175Z,1.60
2022-08-05T11:33:56.265Z,1.48
2022-08-05T11:39:03.573Z,1.57
2022-08-05T11:44:10.966Z,1.50
2022-08-05T11:54:33.587Z,1.40
2022-08-05T11:59:49.451Z,1.50
2022-08-05T12:04:59.667Z,1.60
2022-08-05T12:10:09.603Z,1.50
2022-08-05T12:15:20.911Z,1.33
2022-08-05T12:20:41.932Z,1.40
2022-08-05T12:25:53.780Z,1.48
2022-08-05T12:31:02.297Z,1.50
2022-08-05T12:36:08.523Z,1.60
2022-08-05T12:41:16.338Z,1.40
2022-08-05T12:46:29.487Z,1.45
2022-08-05T12:52:12.036Z,1.33
2022-08-05T12:56:59.731Z,1.42
2022-08-05T13:02:07.427Z,1.40
2022-08-05T13:07:16.052Z,1.20
2022-08-05T13:12:23.374Z,1.40
2022-08-05T13:17:41.427Z,1.50
2022-08-05T13:22:51.566Z,1.40
2022-08-05T13:27:57.730Z,1.50
2022-08-05T13:33:02.054Z,1.40
2022-08-05T13:38:06.044Z,1.30
2022-08-05T13:43:12.183Z,1.60
2022-08-05T13:48:57.635Z,1.30
2022-08-05T13:53:47.728Z,1.40
2022-08-05T13:58:53.935Z,1.57
2022-08-05T14:04:14.686Z,1.40
2022-08-05T14:09:18.390Z,1.70
2022-08-05T14:14:32.289Z,1.50
2022-08-05T14:19:55.443Z,1.30
2022-08-05T14:25:00.160Z,1.40
2022-08-05T14:30:06.238Z,1.65
2022-08-05T14:35:23.948Z,1.67
2022-08-05T14:40:40.881Z,1.30
2022-08-05T14:45:48.750Z,1.50
2022-08-05T14:50:52.116Z,1.50
2022-08-05T14:55:56.298Z,1.33
2022-08-05T15:01:01.514Z,1.40
2022-08-05T15:06:07.514Z,1.45
2022-08-05T15:11:17.141Z,1.60
2022-08-05T15:16:21.980Z,1.20
2022-08-05T15:21:25.668Z,1.63
2022-08-05T15:26:33.859Z,1.43
2022-08-05T15:31:39.523Z,1.60
2022-08-05T15:36:42.957Z,1.42
2022-08-05T15:41:56.091Z,1.50
2022-08-05T15:47:04.380Z,1.60
2022-08-05T15:52:13.813Z,1.60
2022-08-05T15:57:21.231Z,1.58
2022-08-05T16:02:28.747Z,1.60
2022-08-05T16:07:32.589Z,1.50
2022-08-05T16:12:36.221Z,1.50
2022-08-05T16:17:42.475Z,1.95
2022-08-05T16:23:01.082Z,1.60
2022-08-05T16:28:06.104Z,1.98
2022-08-05T16:33:11.172Z,1.52
2022-08-05T16:38:21.879Z,1.55
2022-08-05T16:43:30.394Z,1.70
2022-08-05T16:48:35.765Z,1.42
2022-08-05T16:54:05.024Z,1.77
2022-08-05T16:59:08.072Z,2.70
2022-08-05T17:04:13.322Z,3.77
2022-08-05T17:09:18.675Z,3.03
2022-08-05T17:14:34.323Z,1.80
2022-08-05T17:19:39.519Z,1.70
2022-08-05T17:24:46.370Z,1.52
2022-08-05T17:30:02.489Z,2.47
2022-08-05T17:35:08.581Z,1.40
2022-08-05T17:40:18.367Z,1.52
2022-08-05T17:45:38.279Z,1.60
2022-08-05T17:50:43.553Z,1.60
2022-08-05T17:55:46.856Z,1.80
2022-08-05T18:00:51.016Z,1.52
2022-08-05T18:05:56.199Z,1.58
2022-08-05T18:11:05.295Z,2.25
2022-08-05T18:16:09.693Z,2.10
2022-08-05T18:21:21.122Z,1.80
2022-08-05T18:26:27.461Z,1.63
2022-08-05T18:31:33.874Z,1.80
2022-08-05T18:36:41.293Z,1.70
2022-08-05T18:41:55.434Z,1.50
2022-08-05T18:47:05.043Z,1.80
2022-08-05T18:52:32.739Z,1.80
2022-08-05T18:57:49.881Z,1.90
2022-08-05T19:02:57.795Z,1.98
2022-08-05T19:08:13.580Z,1.90
2022-08-05T19:13:19.753Z,2.20
2022-08-05T19:18:23.239Z,2.30
2022-08-05T19:24:05.570Z,1.80
2022-08-05T19:28:54.784Z,1.77
2022-08-05T19:34:00.115Z,2.30
2022-08-05T19:39:06.728Z,3.50
2022-08-05T19:44:12.961Z,4.40
2022-08-05T19:49:17.913Z,4.03
2022-08-05T19:54:29.667Z,4.70
2022-08-05T19:59:54.891Z,4.82
2022-08-05T20:04:59.630Z,4.60
2022-08-05T20:10:13.224Z,5.60
2022-08-05T20:15:48.757Z,6.80
2022-08-05T20:20:44.920Z,6.72
2022-08-05T20:25:52.329Z,6.00
2022-08-05T20:30:56.874Z,4.90
2022-08-05T20:36:02.021Z,4.87
2022-08-05T20:41:08.157Z,4.60
2022-08-05T20:46:18.535Z,4.47
2022-08-05T20:51:29.138Z,5.60
2022-08-05T20:56:42.233Z,7.10
2022-08-05T21:01:46.391Z,6.25
2022-08-05T21:06:50.849Z,5.65
2022-08-05T21:12:10.755Z,4.97
2022-08-05T21:17:15.271Z,4.20
2022-08-05T21:22:23.311Z,3.80
2022-08-05T21:27:29.118Z,3.40
2022-08-05T21:32:42.357Z,3.45
2022-08-05T21:37:47.275Z,3.00
2022-08-05T21:42:59.151Z,2.50
2022-08-05T21:48:06.236Z,2.50
2022-08-05T21:53:17.412Z,2.50
2022-08-05T21:58:30.848Z,2.53
2022-08-05T22:03:48.686Z,2.30
2022-08-05T22:08:56.442Z,2.60
2022-08-05T22:14:18.209Z,2.58
2022-08-05T22:20:00.918Z,2.80
2022-08-05T22:25:08.833Z,3.10
2022-08-05T22:30:35.449Z,2.70
2022-08-05T22:35:48.632Z,3.17
2022-08-05T22:40:55.560Z,3.20
2022-08-05T22:46:00.765Z,3.60
2022-08-05T22:51:07.194Z,3.22
2022-08-05T22:56:10.721Z,2.90
2022-08-05T23:01:17.861Z,2.90
2022-08-05T23:06:26.308Z,2.60
2022-08-05T23:11:30.059Z,2.80
2022-08-05T23:16:53.020Z,2.92
2022-08-05T23:21:56.520Z,3.10
2022-08-05T23:26:59.971Z,4.23
2022-08-05T23:32:06.028Z,5.78
2022-08-05T23:37:09.396Z,5.60
2022-08-05T23:42:14.944Z,6.00
2022-08-05T23:47:28.371Z,5.30
2022-08-05T23:52:49.438Z,5.47
2022-08-05T23:57:54.198Z,5.13
